Time;durP1;ratioP1;P1;durP2;ratioP2;P2;SDS_P1;SDS_P2;PMS_P1;PMS_P2;Temp;Humidity;BMP_temperature;BMP_pressure;BME280_temperature;BME280_humidity;BME280_pressure;Samples;Min_cycle;Max_cycle;Signal;HPM_P1;HPM_P2
2022/03/01 00:00:39;;;;;;;3.70;3.40;;;;;;;-0.13;57.25;95563.31;5121386;28;20226;-61
2022/03/01 00:03:05;;;;;;;3.80;3.37;;;;;;;-0.10;57.06;95563.16;5114673;28;20225;-56
2022/03/01 00:05:30;;;;;;;4.00;3.60;;;;;;;-0.08;57.54;95555.31;5117054;28;20239;-59
2022/03/01 00:07:56;;;;;;;4.03;3.37;;;;;;;-0.01;57.43;95556.72;5119814;27;20228;-60
2022/03/01 00:10:21;;;;;;;3.90;3.50;;;;;;;-0.07;57.19;95555.25;5118891;28;20324;-58
2022/03/01 00:12:47;;;;;;;4.00;3.60;;;;;;;-0.11;57.97;95547.72;5117015;28;20220;-59
2022/03/01 00:15:12;;;;;;;4.10;3.67;;;;;;;-0.19;57.97;95544.66;5112724;28;20241;-55
2022/03/01 00:17:38;;;;;;;3.77;3.43;;;;;;;-0.13;57.98;95552.16;5112053;28;20211;-58
2022/03/01 00:20:05;;;;;;;3.93;3.63;;;;;;;-0.25;58.81;95548.38;5118454;28;20286;-61
2022/03/01 00:22:30;;;;;;;3.80;3.50;;;;;;;-0.29;58.60;95539.94;5117243;28;20211;-57
2022/03/01 00:24:56;;;;;;;3.60;3.30;;;;;;;-0.25;58.62;95550.97;5115339;27;20220;-57
2022/03/01 00:27:21;;;;;;;3.67;3.33;;;;;;;-0.50;59.43;95546.97;5119482;28;20215;-57
2022/03/01 00:29:47;;;;;;;4.50;3.97;;;;;;;-0.50;59.99;95534.06;5119728;28;20231;-61
2022/03/01 00:32:12;;;;;;;4.00;3.70;;;;;;;-0.41;59.60;95537.09;5114617;27;20349;-61
2022/03/01 00:34:38;;;;;;;4.73;3.77;;;;;;;-0.42;59.09;95527.69;5113366;28;20191;-59
2022/03/01 00:37:04;;;;;;;4.47;4.07;;;;;;;-0.67;60.45;95534.84;5118973;28;20207;-60
2022/03/01 00:39:29;;;;;;;4.33;3.93;;;;;;;-0.72;61.56;95534.22;5114402;28;20231;-59
2022/03/01 00:41:55;;;;;;;4.37;3.97;;;;;;;-0.83;62.04;95526.09;5120086;28;20223;-59
2022/03/01 00:44:20;;;;;;;4.63;4.23;;;;;;;-0.90;61.90;95523.00;5118537;27;20219;-62
2022/03/01 00:46:46;;;;;;;5.07;4.57;;;;;;;-0.84;61.70;95523.63;5113684;27;20209;-60
2022/03/01 00:49:12;;;;;;;4.63;4.23;;;;;;;-0.78;61.38;95524.16;5119029;27;20235;-61
2022/03/01 00:51:37;;;;;;;6.03;5.00;;;;;;;-0.92;62.49;95524.78;5117605;27;20286;-56
2022/03/01 00:54:03;;;;;;;5.80;5.20;;;;;;;-0.85;61.63;95527.13;5116120;28;20279;-61
2022/03/01 00:56:30;;;;;;;5.13;4.63;;;;;;;-0.77;60.58;95507.78;5119446;27;20234;-58
2022/03/01 00:58:56;;;;;;;4.97;4.53;;;;;;;-0.82;60.03;95503.72;5116211;27;20277;-61
2022/03/01 01:01:22;;;;;;;5.57;4.80;;;;;;;-0.89;60.47;95514.31;5118685;28;20272;-62
2022/03/01 01:03:48;;;;;;;4.63;4.00;;;;;;;-0.96;60.08;95512.94;5115091;27;20222;-59
2022/03/01 01:06:13;;;;;;;4.47;4.07;;;;;;;-0.97;59.80;95502.69;5116032;28;20224;-61
2022/03/01 01:08:39;;;;;;;4.83;4.10;;;;;;;-1.02;59.59;95508.03;5110569;28;20224;-60
2022/03/01 01:11:05;;;;;;;4.80;4.40;;;;;;;-1.08;59.78;95502.34;5115899;27;20227;-58
2022/03/01 01:13:30;;;;;;;4.90;4.13;;;;;;;-0.99;59.36;95515.69;5117812;27;20237;-60
2022/03/01 01:15:56;;;;;;;4.50;4.10;;;;;;;-1.01;59.50;95517.47;5116601;28;20224;-60
2022/03/01 01:18:22;;;;;;;5.00;3.87;;;;;;;-1.03;59.13;95513.28;5113342;28;20219;-61
2022/03/01 01:20:47;;;;;;;4.53;4.13;;;;;;;-0.96;59.23;95520.69;5113987;27;20238;-57
2022/03/01 01:23:13;;;;;;;4.83;4.33;;;;;;;-1.08;59.27;95510.09;5114107;28;20223;-60
2022/03/01 01:25:38;;;;;;;4.67;4.00;;;;;;;-1.15;59.94;95518.09;5117281;27;20264;-61
2022/03/01 01:28:04;;;;;;;4.60;4.20;;;;;;;-1.21;59.85;95507.22;5114339;28;20207;-59
2022/03/01 01:30:34;;;;;;;5.00;4.10;;;;;;;-1.23;60.27;95506.44;5119029;27;20223;-58
2022/03/01 01:33:00;;;;;;;4.07;3.67;;;;;;;-1.30;60.45;95497.31;5114989;27;20223;-60
2022/03/01 01:35:28;;;;;;;4.90;4.30;;;;;;;-1.36;60.50;95490.69;5115800;28;20227;-60
2022/03/01 01:37:54;;;;;;;4.67;4.10;;;;;;;-1.29;59.52;95494.66;5113775;28;20215;-56
2022/03/01 01:40:32;;;;;;;4.57;4.10;;;;;;;-1.20;59.67;95501.16;5115559;28;20207;-55
2022/03/01 01:42:58;;;;;;;4.97;4.47;;;;;;;-1.11;59.50;95505.91;5120209;28;20224;-61
2022/03/01 01:45:25;;;;;;;5.17;4.67;;;;;;;-1.26;59.35;95493.69;5120710;28;20219;-62
2022/03/01 01:47:52;;;;;;;4.47;4.07;;;;;;;-1.29;59.41;95488.66;5118534;28;20227;-62
2022/03/01 01:50:18;;;;;;;5.33;4.43;;;;;;;-1.41;59.91;95488.31;5115818;28;22104;-60
2022/03/01 01:52:45;;;;;;;5.33;4.20;;;;;;;-1.52;60.41;95498.25;5115134;27;20207;-60
2022/03/01 01:55:11;;;;;;;4.23;3.83;;;;;;;-1.38;60.42;95495.91;5131841;27;20275;-60
2022/03/01 01:57:37;;;;;;;6.07;4.50;;;;;;;-1.33;59.90;95493.97;5116021;28;20245;-59
2022/03/01 02:00:05;;;;;;;4.53;4.10;;;;;;;-1.40;59.99;95483.97;5119520;28;20303;-58
2022/03/01 02:02:30;;;;;;;4.77;4.13;;;;;;;-1.42;59.72;95491.78;5113325;27;20227;-60
2022/03/01 02:04:56;;;;;;;5.10;4.60;;;;;;;-1.54;60.24;95476.03;5115905;27;20299;-58
2022/03/01 02:07:22;;;;;;;5.07;4.57;;;;;;;-1.50;60.47;95483.53;5114003;28;20203;-53
2022/03/01 02:09:47;;;;;;;5.13;4.70;;;;;;;-1.56;60.62;95476.91;5114602;28;20265;-56
2022/03/01 02:12:13;;;;;;;6.33;5.73;;;;;;;-1.59;60.48;95471.88;5111074;28;20216;-58
2022/03/01 02:14:39;;;;;;;5.03;4.53;;;;;;;-1.50;60.08;95477.53;5116524;28;20230;-58
2022/03/01 02:17:08;;;;;;;5.13;4.63;;;;;;;-1.62;60.14;95472.03;5112202;28;20215;-59
2022/03/01 02:19:34;;;;;;;6.37;4.53;;;;;;;-1.67;60.09;95473.13;5117841;28;20207;-56
2022/03/01 02:21:59;;;;;;;5.10;4.60;;;;;;;-1.64;60.07;95454.94;5112375;28;20208;-58
2022/03/01 02:24:28;;;;;;;4.90;4.40;;;;;;;-1.69;59.71;95454.31;5110449;28;20227;-60
2022/03/01 02:26:59;;;;;;;4.30;3.90;;;;;;;-1.67;60.29;95452.50;5115174;28;20291;-57
2022/03/01 02:29:25;;;;;;;5.00;4.50;;;;;;;-1.72;60.61;95434.66;5127045;28;20222;-57
2022/03/01 02:31:53;;;;;;;4.80;4.10;;;;;;;-1.73;60.24;95447.63;5113504;28;20208;-61
2022/03/01 02:34:18;;;;;;;4.77;4.27;;;;;;;-1.72;60.22;95444.13;5113315;28;20195;-57
2022/03/01 02:36:45;;;;;;;5.73;3.90;;;;;;;-1.81;60.08;95430.75;5121704;28;20249;-56
2022/03/01 02:39:10;;;;;;;4.73;4.33;;;;;;;-1.73;60.24;95439.91;5115142;27;20211;-61
2022/03/01 02:41:37;;;;;;;4.40;3.97;;;;;;;-1.83;60.25;95435.13;5113963;28;20213;-58
2022/03/01 02:44:03;;;;;;;6.00;4.50;;;;;;;-1.79;59.83;95444.41;5125136;28;20234;-61
2022/03/01 02:46:28;;;;;;;4.20;3.50;;;;;;;-1.69;59.90;95446.56;5120609;28;20212;-60
2022/03/01 02:48:54;;;;;;;4.30;3.77;;;;;;;-1.73;59.22;95440.72;5116544;28;21212;-54
2022/03/01 02:51:19;;;;;;;4.60;3.47;;;;;;;-1.78;58.97;95440.91;5115661;28;20231;-61
2022/03/01 02:53:45;;;;;;;6.07;4.37;;;;;;;-1.74;59.50;95448.50;5114230;27;20231;-58
2022/03/01 02:56:10;;;;;;;4.77;3.97;;;;;;;-1.82;58.97;95449.72;5121282;27;20227;-61
2022/03/01 02:58:36;;;;;;;4.57;3.40;;;;;;;-1.78;58.74;95435.75;5115242;28;20215;-62
2022/03/01 03:01:01;;;;;;;4.70;3.63;;;;;;;-1.84;58.38;95446.34;5125369;27;20228;-63
2022/03/01 03:03:27;;;;;;;3.87;3.47;;;;;;;-1.78;58.21;95451.22;5112780;28;20219;-58
2022/03/01 03:05:52;;;;;;;3.90;3.43;;;;;;;-1.86;58.29;95432.69;5122544;28;20228;-61
2022/03/01 03:08:18;;;;;;;3.50;3.20;;;;;;;-1.94;58.11;95449.41;5114412;28;20279;-59
2022/03/01 03:10:43;;;;;;;3.97;3.20;;;;;;;-1.84;58.69;95454.09;5117416;27;20230;-60
2022/03/01 03:13:09;;;;;;;3.87;3.40;;;;;;;-2.03;59.28;95437.75;5122830;28;20207;-61
2022/03/01 03:15:34;;;;;;;5.00;3.37;;;;;;;-1.87;59.14;95446.50;5120504;28;20325;-61
2022/03/01 03:18:00;;;;;;;3.67;3.23;;;;;;;-1.79;58.95;95457.31;5123260;28;20295;-61
2022/03/01 03:20:25;;;;;;;4.00;3.13;;;;;;;-1.72;58.64;95449.28;5112318;28;20212;-57
2022/03/01 03:22:51;;;;;;;3.80;3.37;;;;;;;-1.93;60.60;95466.50;5119432;28;20196;-59
2022/03/01 03:25:17;;;;;;;4.23;3.53;;;;;;;-2.05;61.52;95460.16;5115923;28;20191;-61
2022/03/01 03:27:42;;;;;;;3.97;2.90;;;;;;;-2.00;61.35;95459.06;5120647;28;20211;-60
2022/03/01 03:30:09;;;;;;;3.30;3.00;;;;;;;-1.90;60.53;95462.06;5116753;27;20246;-60
2022/03/01 03:32:35;;;;;;;3.17;2.97;;;;;;;-1.94;60.44;95460.53;5120959;28;20218;-60
2022/03/01 03:35:01;;;;;;;3.40;3.10;;;;;;;-2.02;61.50;95467.75;5118921;28;20229;-60
2022/03/01 03:37:27;;;;;;;3.20;2.90;;;;;;;-1.96;61.39;95462.34;5117978;28;20301;-60
2022/03/01 03:39:53;;;;;;;3.63;3.10;;;;;;;-2.10;61.71;95450.03;5124029;28;20276;-58
2022/03/01 03:42:19;;;;;;;3.83;3.50;;;;;;;-1.89;61.62;95455.19;5113892;27;20307;-60
2022/03/01 03:44:44;;;;;;;5.67;3.27;;;;;;;-2.03;61.55;95459.19;5120656;27;20313;-60
2022/03/01 03:47:10;;;;;;;3.13;2.83;;;;;;;-2.00;61.76;95461.63;5112361;28;20269;-62
2022/03/01 03:49:37;;;;;;;4.13;3.67;;;;;;;-2.04;61.92;95462.66;5119136;27;20264;-61
2022/03/01 03:52:07;;;;;;;3.60;3.17;;;;;;;-1.99;62.13;95465.03;5119579;28;20234;-61
2022/03/01 03:54:33;;;;;;;3.93;3.57;;;;;;;-1.97;61.43;95458.09;5118512;28;20216;-59
2022/03/01 03:56:58;;;;;;;3.73;3.40;;;;;;;-1.86;61.56;95465.38;5119619;28;20238;-59
2022/03/01 03:59:24;;;;;;;3.83;3.43;;;;;;;-1.93;61.48;95454.47;5113308;28;20219;-58
2022/03/01 04:01:50;;;;;;;3.73;3.07;;;;;;;-2.05;61.99;95461.00;5121795;27;20208;-58
2022/03/01 04:04:15;;;;;;;3.63;3.33;;;;;;;-1.99;62.39;95452.16;5119095;28;20203;-60
2022/03/01 04:06:41;;;;;;;4.40;3.67;;;;;;;-1.96;62.77;95454.59;5118942;28;20239;-60
2022/03/01 04:09:06;;;;;;;3.40;3.03;;;;;;;-1.89;62.38;95453.44;5115112;28;20255;-62
2022/03/01 04:11:33;;;;;;;3.53;3.20;;;;;;;-1.88;62.07;95452.53;5120476;28;20268;-58
2022/03/01 04:13:58;;;;;;;4.20;3.73;;;;;;;-2.03;62.29;95453.22;5117519;28;20211;-60
2022/03/01 04:16:24;;;;;;;3.63;3.33;;;;;;;-2.07;62.51;95455.06;5119695;28;20199;-61
2022/03/01 04:18:50;;;;;;;3.70;3.40;;;;;;;-1.96;61.27;95459.75;5113534;27;20211;-57
2022/03/01 04:21:16;;;;;;;5.13;2.90;;;;;;;-1.98;61.39;95455.56;5116142;27;20256;-59
2022/03/01 04:23:42;;;;;;;3.90;3.50;;;;;;;-1.97;61.25;95455.50;5115271;28;20226;-59
2022/03/01 04:26:07;;;;;;;4.40;3.40;;;;;;;-2.03;61.82;95455.78;5119618;27;20351;-62
2022/03/01 04:28:33;;;;;;;4.00;3.70;;;;;;;-2.12;61.05;95453.56;5117282;28;20211;-61
2022/03/01 04:30:59;;;;;;;3.50;3.10;;;;;;;-2.30;61.77;95463.75;5122497;28;20228;-59
2022/03/01 04:33:24;;;;;;;4.97;3.33;;;;;;;-2.30;61.79;95450.88;5119691;27;20227;-59
2022/03/01 04:35:50;;;;;;;4.27;3.77;;;;;;;-2.32;61.92;95447.53;5114923;28;20250;-59
2022/03/01 04:38:16;;;;;;;4.20;3.53;;;;;;;-2.22;61.62;95453.97;5119956;28;20278;-60
2022/03/01 04:40:42;;;;;;;3.80;3.40;;;;;;;-2.38;62.31;95446.94;5117596;27;20225;-61
2022/03/01 04:43:07;;;;;;;4.77;3.57;;;;;;;-2.25;61.27;95453.25;5114340;28;20207;-60
2022/03/01 04:45:33;;;;;;;4.67;3.60;;;;;;;-2.29;61.40;95460.28;5119349;27;20349;-59
2022/03/01 04:47:59;;;;;;;3.67;3.17;;;;;;;-2.24;61.33;95471.22;5118808;28;20223;-58
2022/03/01 04:50:25;;;;;;;3.97;3.57;;;;;;;-2.23;60.70;95464.34;5109819;28;20231;-57
2022/03/01 04:52:51;;;;;;;4.37;3.73;;;;;;;-2.29;61.33;95468.00;5117574;27;20203;-59
2022/03/01 04:55:16;;;;;;;3.73;3.43;;;;;;;-2.41;62.34;95475.38;5113493;28;20260;-57
2022/03/01 04:57:43;;;;;;;3.43;3.10;;;;;;;-2.34;62.45;95474.25;5110166;28;20208;-56
2022/03/01 05:00:12;;;;;;;5.43;4.47;;;;;;;-2.22;62.46;95476.31;5114009;27;20244;-61
2022/03/01 05:02:44;;;;;;;7.63;5.43;;;;;;;-2.39;63.68;95483.91;5116383;28;20215;-57
2022/03/01 05:05:11;;;;;;;7.23;5.83;;;;;;;-2.50;64.77;95481.75;5117195;28;20230;-57
2022/03/01 05:07:42;;;;;;;11.03;6.47;;;;;;;-2.60;64.73;95470.16;5121504;27;20235;-59
2022/03/01 05:10:09;;;;;;;10.83;7.10;;;;;;;-2.68;65.40;95484.16;5114288;28;20210;-61
2022/03/01 05:12:42;;;;;;;9.00;6.90;;;;;;;-2.69;64.98;95482.50;5120779;28;20215;-60
2022/03/01 05:15:07;;;;;;;7.80;6.30;;;;;;;-2.81;65.19;95475.22;5118300;28;20243;-56
2022/03/01 05:17:34;;;;;;;9.60;7.23;;;;;;;-2.84;65.46;95479.66;5115131;28;20233;-59
2022/03/01 05:20:01;;;;;;;7.80;7.00;;;;;;;-2.88;65.35;95489.25;5121509;28;20215;-58
2022/03/01 05:22:26;;;;;;;10.40;7.90;;;;;;;-2.86;65.74;95486.59;5113487;28;20227;-60
2022/03/01 05:24:52;;;;;;;10.77;8.13;;;;;;;-2.75;65.80;95485.31;5116706;28;20226;-61
2022/03/01 05:27:17;;;;;;;9.83;7.60;;;;;;;-2.75;65.23;95482.75;5116039;28;20224;-61
2022/03/01 05:29:43;;;;;;;9.73;7.57;;;;;;;-2.64;64.54;95481.47;5116695;28;20227;-63
2022/03/01 05:32:08;;;;;;;9.30;8.00;;;;;;;-2.66;64.73;95487.50;5113996;27;20246;-62
2022/03/01 05:34:34;;;;;;;9.23;6.87;;;;;;;-2.63;64.93;95478.81;5112599;27;20199;-64
2022/03/01 05:36:59;;;;;;;8.63;6.90;;;;;;;-2.59;64.87;95489.81;5117913;28;20203;-61
2022/03/01 05:39:24;;;;;;;8.80;6.97;;;;;;;-2.49;64.08;95488.56;5114926;28;20268;-61
2022/03/01 05:41:50;;;;;;;8.57;7.03;;;;;;;-2.35;64.36;95485.44;5115210;28;20231;-61
2022/03/01 05:44:15;;;;;;;9.77;7.53;;;;;;;-2.35;64.47;95501.75;5117342;28;20212;-60
2022/03/01 05:46:41;;;;;;;10.27;7.33;;;;;;;-2.50;64.75;95495.47;5116709;28;20278;-62
2022/03/01 05:49:07;;;;;;;9.03;7.50;;;;;;;-2.48;65.32;95487.69;5112442;27;20224;-61
2022/03/01 05:51:33;;;;;;;9.90;6.57;;;;;;;-2.41;64.57;95494.25;5113142;28;20235;-61
2022/03/01 05:53:59;;;;;;;13.93;6.50;;;;;;;-2.42;63.86;95492.59;5117083;27;20216;-59
2022/03/01 05:56:24;;;;;;;8.90;6.40;;;;;;;-2.30;63.67;95496.38;5113462;28;20232;-62
2022/03/01 05:58:50;;;;;;;7.03;6.20;;;;;;;-2.25;63.58;95503.03;5114423;27;20245;-61
2022/03/01 06:01:15;;;;;;;7.00;5.77;;;;;;;-2.13;62.51;95500.88;5116103;28;20299;-61
2022/03/01 06:03:41;;;;;;;9.03;6.13;;;;;;;-1.96;62.07;95508.72;5113985;28;20276;-62
2022/03/01 06:06:06;;;;;;;5.83;5.23;;;;;;;-1.85;61.02;95505.69;5112426;28;20245;-60
2022/03/01 06:08:32;;;;;;;6.43;5.60;;;;;;;-1.85;60.43;95505.69;5117646;28;20284;-62
2022/03/01 06:10:57;;;;;;;5.90;5.30;;;;;;;-1.75;60.02;95506.97;5112681;28;20235;-62
2022/03/01 06:13:23;;;;;;;5.43;4.93;;;;;;;-1.68;59.68;95513.56;5118874;28;20286;-62
2022/03/01 06:15:48;;;;;;;6.63;4.93;;;;;;;-1.54;59.46;95512.13;5119583;28;20212;-62
2022/03/01 06:18:14;;;;;;;5.70;5.10;;;;;;;-1.39;58.92;95514.00;5113549;28;20208;-62
2022/03/01 06:20:40;;;;;;;6.13;5.20;;;;;;;-1.41;58.99;95503.78;5113898;28;20216;-62
2022/03/01 06:23:05;;;;;;;7.60;5.70;;;;;;;-1.25;59.09;95522.00;5116322;28;20224;-61
2022/03/01 06:25:31;;;;;;;5.83;5.23;;;;;;;-1.16;58.94;95516.41;5112174;28;20286;-60
2022/03/01 06:27:56;;;;;;;6.33;5.60;;;;;;;-1.15;58.80;95514.66;5110817;27;20226;-62
2022/03/01 06:30:23;;;;;;;6.73;6.03;;;;;;;-1.21;59.49;95504.63;5109862;28;20241;-61
2022/03/01 06:32:48;;;;;;;6.77;6.07;;;;;;;-1.25;59.83;95516.00;5120015;28;20222;-61
2022/03/01 06:35:14;;;;;;;8.73;6.77;;;;;;;-1.22;60.12;95515.88;5114585;28;20229;-57
2022/03/01 06:37:39;;;;;;;8.17;6.93;;;;;;;-1.21;60.15;95518.34;5117032;28;20203;-62
2022/03/01 06:40:06;;;;;;;7.40;6.57;;;;;;;-1.13;60.13;95513.69;5109158;28;20203;-60
2022/03/01 06:42:33;;;;;;;9.60;8.03;;;;;;;-1.01;59.79;95512.31;5114755;28;20224;-58
2022/03/01 06:44:58;;;;;;;8.97;7.93;;;;;;;-0.91;59.26;95508.41;5112000;28;20275;-56
2022/03/01 06:47:24;;;;;;;10.93;9.20;;;;;;;-0.70;59.52;95513.47;5118353;28;20242;-60
2022/03/01 06:49:49;;;;;;;9.53;8.53;;;;;;;-0.61;58.60;95501.91;5115529;28;20238;-57
2022/03/01 06:52:15;;;;;;;8.37;7.47;;;;;;;-0.53;58.82;95504.97;5111398;28;20223;-61
2022/03/01 06:54:40;;;;;;;7.53;6.77;;;;;;;-0.51;59.01;95516.88;5113968;27;20281;-60
2022/03/01 06:57:06;;;;;;;7.10;6.10;;;;;;;-0.45;58.95;95519.19;5114668;28;20227;-61
2022/03/01 06:59:31;;;;;;;7.33;5.63;;;;;;;-0.31;58.23;95517.69;5119324;28;20251;-59
2022/03/01 07:01:57;;;;;;;6.83;6.13;;;;;;;-0.18;58.10;95511.00;5114600;28;20287;-62
2022/03/01 07:04:22;;;;;;;4.80;4.40;;;;;;;0.03;57.31;95513.44;5116774;28;20218;-58
2022/03/01 07:06:48;;;;;;;5.30;4.50;;;;;;;0.03;57.44;95505.66;5116489;28;20232;-58
2022/03/01 07:09:13;;;;;;;5.80;4.90;;;;;;;0.12;57.64;95507.81;5115266;28;20223;-57
2022/03/01 07:11:39;;;;;;;6.83;4.20;;;;;;;0.27;56.78;95512.22;5111826;27;20269;-61
2022/03/01 07:14:05;;;;;;;4.77;4.23;;;;;;;0.29;56.22;95506.97;5115094;28;20227;-60
2022/03/01 07:16:30;;;;;;;5.37;4.87;;;;;;;0.38;56.58;95502.16;5117909;28;20212;-58
2022/03/01 07:18:55;;;;;;;5.13;4.63;;;;;;;0.40;56.55;95512.41;5113788;28;20227;-59
2022/03/01 07:21:21;;;;;;;5.10;4.60;;;;;;;0.54;56.04;95516.91;5118439;28;20298;-58
2022/03/01 07:23:47;;;;;;;5.97;5.17;;;;;;;0.70;56.22;95509.19;5114450;28;20367;-58
2022/03/01 07:26:12;;;;;;;5.20;4.70;;;;;;;0.71;55.75;95506.50;5109552;28;20231;-59
2022/03/01 07:28:38;;;;;;;5.97;4.70;;;;;;;0.72;55.63;95510.75;5119880;27;20267;-61
2022/03/01 07:31:03;;;;;;;6.20;4.63;;;;;;;0.74;55.36;95511.53;5124553;28;20239;-58
2022/03/01 07:33:29;;;;;;;5.93;4.40;;;;;;;0.73;56.44;95512.44;5114500;27;20230;-61
2022/03/01 07:35:55;;;;;;;5.37;4.60;;;;;;;0.79;55.63;95498.34;5119585;28;20219;-61
2022/03/01 07:38:20;;;;;;;4.60;4.20;;;;;;;0.93;55.15;95511.38;5115314;27;20330;-59
2022/03/01 07:40:46;;;;;;;6.87;4.73;;;;;;;0.81;55.37;95501.69;5122775;27;20195;-62
2022/03/01 07:43:11;;;;;;;5.50;4.73;;;;;;;0.85;55.41;95509.19;5113286;28;20266;-61
2022/03/01 07:45:37;;;;;;;6.53;4.67;;;;;;;0.92;54.91;95489.03;5118334;27;20215;-57
2022/03/01 07:48:03;;;;;;;5.33;4.00;;;;;;;1.04;55.41;95508.22;5118827;28;20219;-59
2022/03/01 07:50:30;;;;;;;6.07;4.63;;;;;;;1.19;54.74;95499.63;5119092;28;20223;-57
2022/03/01 07:52:55;;;;;;;5.43;4.83;;;;;;;1.15;55.27;95497.28;5119397;27;20428;-61
2022/03/01 07:55:22;;;;;;;6.10;4.73;;;;;;;1.31;55.13;95495.56;5116414;28;20233;-61
2022/03/01 07:57:48;;;;;;;3.83;3.43;;;;;;;1.30;54.33;95502.47;5122374;28;20234;-64
2022/03/01 08:00:14;;;;;;;5.17;4.60;;;;;;;1.33;54.13;95507.50;5116298;28;20215;-60
2022/03/01 08:02:41;;;;;;;5.20;4.47;;;;;;;1.33;54.53;95496.28;5116594;27;20214;-61
2022/03/01 08:05:08;;;;;;;6.40;4.90;;;;;;;1.45;54.57;95506.00;5112685;28;20228;-60
2022/03/01 08:07:34;;;;;;;7.30;5.43;;;;;;;1.35;54.49;95498.81;5114787;27;20261;-58
2022/03/01 08:10:00;;;;;;;7.13;6.10;;;;;;;1.57;53.90;95501.88;5114389;27;20223;-61
2022/03/01 08:12:25;;;;;;;7.10;5.43;;;;;;;1.69;53.16;95510.75;5119429;27;20280;-53
2022/03/01 08:14:51;;;;;;;7.13;6.00;;;;;;;1.67;53.73;95504.81;5121889;27;20237;-59
2022/03/01 08:17:17;;;;;;;6.20;5.60;;;;;;;1.70;53.30;95502.03;5120573;28;20247;-61
2022/03/01 08:19:43;;;;;;;7.40;5.30;;;;;;;1.90;53.67;95517.31;5120380;28;20299;-59
2022/03/01 08:22:09;;;;;;;7.07;5.33;;;;;;;2.16;52.58;95515.81;5119794;28;20195;-57
2022/03/01 08:24:35;;;;;;;8.27;5.50;;;;;;;2.16;52.71;95513.22;5118894;28;20215;-59
2022/03/01 08:27:00;;;;;;;7.33;5.37;;;;;;;2.09;52.73;95513.69;5118705;28;20250;-61
2022/03/01 08:29:29;;;;;;;6.53;5.50;;;;;;;1.99;53.30;95508.16;5115803;28;20232;-58
2022/03/01 08:31:54;;;;;;;7.17;5.40;;;;;;;2.13;53.30;95512.56;5118155;27;20321;-59
2022/03/01 08:34:20;;;;;;;6.53;5.53;;;;;;;2.11;52.96;95514.41;5112911;28;20215;-59
2022/03/01 08:36:45;;;;;;;5.67;4.90;;;;;;;2.17;52.37;95508.88;5120710;27;20226;-61
2022/03/01 08:39:11;;;;;;;6.10;5.10;;;;;;;2.17;51.70;95511.47;5117197;28;20243;-61
2022/03/01 08:41:36;;;;;;;5.43;4.93;;;;;;;2.01;51.82;95508.94;5122163;28;20235;-60
2022/03/01 08:44:02;;;;;;;5.43;4.83;;;;;;;1.98;51.89;95515.13;5118208;28;20243;-61
2022/03/01 08:46:28;;;;;;;5.67;4.63;;;;;;;2.05;52.32;95501.78;5117254;28;20278;-57
2022/03/01 08:48:53;;;;;;;5.80;5.23;;;;;;;2.03;52.22;95509.66;5118027;28;20307;-60
2022/03/01 08:51:23;;;;;;;5.57;5.07;;;;;;;2.14;52.17;95512.50;5120064;28;20219;-59
2022/03/01 08:53:50;;;;;;;5.33;4.80;;;;;;;2.09;52.60;95509.31;5115663;28;20223;-55
2022/03/01 08:56:16;;;;;;;5.30;4.60;;;;;;;2.18;52.50;95513.97;5115093;27;20220;-60
2022/03/01 08:58:43;;;;;;;5.37;4.50;;;;;;;2.26;51.73;95512.69;5117972;28;20230;-55
2022/03/01 09:01:08;;;;;;;5.00;4.57;;;;;;;2.20;51.80;95516.47;5119679;28;20200;-61
2022/03/01 09:03:34;;;;;;;4.90;4.50;;;;;;;2.39;51.71;95514.47;5120156;28;20241;-57
2022/03/01 09:06:00;;;;;;;5.67;5.07;;;;;;;2.48;51.10;95505.31;5116356;27;20306;-59
2022/03/01 09:08:25;;;;;;;5.20;4.50;;;;;;;2.57;51.83;95509.97;5117398;28;20224;-61
2022/03/01 09:10:51;;;;;;;5.47;4.70;;;;;;;2.52;50.99;95509.41;5121627;28;20215;-56
2022/03/01 09:13:16;;;;;;;5.23;4.13;;;;;;;2.62;51.08;95507.09;5119009;28;20218;-59
2022/03/01 09:15:42;;;;;;;4.60;4.20;;;;;;;2.84;49.43;95520.47;5111777;27;20219;-58
2022/03/01 09:18:08;;;;;;;4.13;3.70;;;;;;;3.03;48.71;95521.94;5118162;27;20227;-57
2022/03/01 09:20:34;;;;;;;4.20;3.80;;;;;;;2.96;47.69;95515.44;5111526;28;20212;-60
2022/03/01 09:23:00;;;;;;;5.17;4.67;;;;;;;3.09;48.21;95521.56;5117703;27;20232;-57
2022/03/01 09:25:26;;;;;;;4.83;4.37;;;;;;;3.05;49.13;95507.94;5121150;27;20215;-59
2022/03/01 09:27:51;;;;;;;6.33;5.17;;;;;;;3.19;49.26;95516.66;5118858;28;20223;-60
2022/03/01 09:30:18;;;;;;;7.10;4.20;;;;;;;3.22;49.53;95514.69;5093920;28;20255;-63
2022/03/01 09:32:44;;;;;;;5.57;4.13;;;;;;;3.18;48.33;95514.97;5113862;28;20242;-62
2022/03/01 09:35:11;;;;;;;6.70;4.83;;;;;;;2.82;49.16;95526.69;5110110;28;20298;-62
2022/03/01 09:37:37;;;;;;;6.73;5.00;;;;;;;2.90;50.17;95531.41;5115241;28;20196;-60
2022/03/01 09:40:05;;;;;;;6.77;4.77;;;;;;;3.06;50.69;95527.78;5114963;28;20218;-60
2022/03/01 09:42:31;;;;;;;5.60;3.93;;;;;;;3.14;49.03;95521.28;5119070;28;20222;-62
2022/03/01 09:44:58;;;;;;;5.80;5.20;;;;;;;3.15;49.59;95528.16;5116890;28;20227;-60
2022/03/01 09:47:23;;;;;;;7.60;5.23;;;;;;;3.45;48.13;95526.25;5114920;28;20273;-63
2022/03/01 09:49:49;;;;;;;5.90;5.30;;;;;;;3.65;48.86;95526.75;5107598;28;20310;-58
2022/03/01 09:52:16;;;;;;;5.10;4.60;;;;;;;3.79;48.24;95529.31;5111483;28;20264;-61
2022/03/01 09:54:41;;;;;;;5.53;5.03;;;;;;;3.88;48.50;95515.72;5113767;27;20233;-60
2022/03/01 09:57:07;;;;;;;5.63;5.13;;;;;;;3.90;48.37;95511.28;5112916;28;20219;-61
2022/03/01 09:59:34;;;;;;;9.30;6.30;;;;;;;4.14;47.62;95511.44;5110355;27;20224;-61
2022/03/01 10:02:00;;;;;;;5.93;5.43;;;;;;;4.16;47.78;95508.72;5116771;28;20238;-58
2022/03/01 10:04:25;;;;;;;5.03;4.63;;;;;;;4.18;47.18;95510.28;5113608;28;20278;-58
2022/03/01 10:06:51;;;;;;;4.73;4.30;;;;;;;4.26;45.94;95514.16;5117722;27;20235;-59
2022/03/01 10:09:16;;;;;;;5.07;4.57;;;;;;;4.18;46.18;95517.28;5119120;28;20239;-58
2022/03/01 10:11:43;;;;;;;6.00;4.57;;;;;;;4.18;46.08;95502.47;5116905;28;20251;-58
2022/03/01 10:14:09;;;;;;;5.27;4.77;;;;;;;4.25;45.88;95500.31;5114269;28;20245;-58
2022/03/01 10:16:40;;;;;;;5.23;4.73;;;;;;;4.25;45.54;95500.31;5121168;27;20266;-62
2022/03/01 10:19:16;;;;;;;5.63;4.50;;;;;;;4.22;46.00;95505.72;5115175;28;20214;-60
2022/03/01 10:21:42;;;;;;;5.83;4.43;;;;;;;4.12;45.94;95500.28;5118089;28;20210;-61
2022/03/01 10:24:08;;;;;;;6.17;5.17;;;;;;;4.15;46.09;95502.69;5117909;28;20223;-62
2022/03/01 10:26:37;;;;;;;4.60;4.20;;;;;;;4.15;45.61;95499.25;5120331;28;20226;-60
2022/03/01 10:29:04;;;;;;;7.10;5.37;;;;;;;4.01;48.06;95496.72;5116868;28;20225;-60
2022/03/01 10:31:33;;;;;;;5.63;5.13;;;;;;;4.05;47.06;95493.81;5117391;28;20211;-62
2022/03/01 10:34:00;;;;;;;5.50;5.10;;;;;;;4.24;47.16;95490.00;5118238;28;20222;-63
2022/03/01 10:36:31;;;;;;;6.03;5.43;;;;;;;4.09;47.28;95491.84;5117247;28;20227;-61
2022/03/01 10:39:06;;;;;;;6.43;5.83;;;;;;;4.31;47.57;95497.31;5113494;28;20220;-63
2022/03/01 10:41:37;;;;;;;7.70;5.57;;;;;;;4.23;46.77;95480.53;5116062;28;20215;-62
2022/03/01 10:44:03;;;;;;;5.47;4.83;;;;;;;4.26;46.30;95470.75;5115416;28;20226;-63
2022/03/01 10:46:36;;;;;;;5.53;5.03;;;;;;;4.39;46.38;95479.41;5112258;28;20212;-62
2022/03/01 10:49:11;;;;;;;6.93;5.50;;;;;;;4.80;46.38;95478.34;5118190;28;20240;-63
2022/03/01 10:51:54;;;;;;;5.60;5.10;;;;;;;5.12;45.00;95477.91;5117645;27;20219;-63
2022/03/01 10:54:26;;;;;;;8.23;5.13;;;;;;;5.21;44.85;95452.97;5118339;28;20231;-60
2022/03/01 10:56:55;;;;;;;8.93;5.83;;;;;;;5.55;43.05;95469.66;5115367;28;20227;-62
2022/03/01 10:59:27;;;;;;;7.37;5.47;;;;;;;5.76;42.66;95462.06;5115798;28;20223;-62
2022/03/01 11:01:54;;;;;;;7.70;5.37;;;;;;;5.82;42.17;95466.81;5118048;28;20204;-60
2022/03/01 11:04:25;;;;;;;5.77;5.20;;;;;;;5.79;42.43;95456.59;5118987;28;20203;-56
2022/03/01 11:06:53;;;;;;;7.37;5.13;;;;;;;5.87;41.56;95461.28;5117514;28;20267;-63
2022/03/01 11:09:21;;;;;;;6.10;5.50;;;;;;;5.89;43.08;95456.78;5119499;28;20244;-62
2022/03/01 11:11:48;;;;;;;6.53;5.43;;;;;;;5.57;42.17;95452.13;5114642;28;20236;-62
2022/03/01 11:14:22;;;;;;;6.43;5.70;;;;;;;5.44;43.92;95456.56;5121514;28;20246;-62
2022/03/01 11:16:50;;;;;;;5.80;5.30;;;;;;;5.06;44.91;95458.31;5118106;27;20242;-62
2022/03/01 11:19:18;;;;;;;6.60;5.87;;;;;;;5.00;44.89;95450.94;5114939;28;20249;-62
2022/03/01 11:21:47;;;;;;;7.27;6.47;;;;;;;4.80;45.77;95454.91;5120310;27;20219;-62
2022/03/01 11:24:16;;;;;;;7.83;6.00;;;;;;;4.40;46.92;95447.22;5122582;28;20251;-62
2022/03/01 11:26:43;;;;;;;8.07;6.13;;;;;;;4.46;47.06;95443.34;5115646;28;20242;-63
2022/03/01 11:29:10;;;;;;;7.20;6.50;;;;;;;4.22;47.57;95442.41;5116561;28;20310;-59
2022/03/01 11:31:36;;;;;;;10.10;6.30;;;;;;;4.08;48.37;95436.34;5117642;28;20226;-59